Time;durP1;ratioP1;P1;durP2;ratioP2;P2;SDS_P1;SDS_P2;PMS_P1;PMS_P2;Temp;Humidity;BMP_temperature;BMP_pressure;BME280_temperature;BME280_humidity;BME280_pressure;Samples;Min_cycle;Max_cycle;Signal;HPM_P1;HPM_P2
2023/05/14 00:00:23;;;;;;;55.17;33.40;;;;;;;;;;5052737;28;20029;-69
2023/05/14 00:02:49;;;;;;;65.78;39.53;;;;;;;;;;5052783;28;20107;-68
2023/05/14 00:05:16;;;;;;;49.97;33.15;;;;;;;;;;5052650;28;20021;-67
2023/05/14 00:07:43;;;;;;;51.55;32.58;;;;;;;;;;5052545;28;20028;-68
2023/05/14 00:10:10;;;;;;;27.13;16.20;;;;;;;;;;5052566;28;20061;-68
2023/05/14 00:12:36;;;;;;;29.30;19.65;;;;;;;;;;5052705;28;20048;-68
2023/05/14 00:15:03;;;;;;;37.53;23.85;;;;;;;;;;5052506;28;20500;-67
2023/05/14 00:17:30;;;;;;;36.88;21.45;;;;;;;;;;5053263;28;20033;-67
2023/05/14 00:19:58;;;;;;;42.13;21.50;;;;;;;;;;5056347;28;20031;-68
2023/05/14 00:22:24;;;;;;;40.25;19.35;;;;;;;;;;5056139;28;20107;-68
2023/05/14 00:24:51;;;;;;;30.95;17.23;;;;;;;;;;5056108;28;20044;-67
2023/05/14 00:27:18;;;;;;;37.70;15.07;;;;;;;;;;5056189;28;20108;-67
2023/05/14 00:29:44;;;;;;;36.88;16.98;;;;;;;;;;5055916;28;20524;-68
2023/05/14 00:32:11;;;;;;;53.58;16.35;;;;;;;;;;5056507;28;20058;-66
2023/05/14 00:34:37;;;;;;;31.95;18.70;;;;;;;;;;5056158;28;20043;-67
2023/05/14 00:37:04;;;;;;;28.75;16.23;;;;;;;;;;5056046;28;20095;-66
2023/05/14 00:39:31;;;;;;;30.95;15.20;;;;;;;;;;5056036;28;20040;-67
2023/05/14 00:41:57;;;;;;;21.60;11.57;;;;;;;;;;5055965;28;20537;-68
2023/05/14 00:44:24;;;;;;;24.88;12.18;;;;;;;;;;5045381;28;20037;-68
2023/05/14 00:46:51;;;;;;;28.63;12.80;;;;;;;;;;5046680;28;20354;-68
2023/05/14 00:49:17;;;;;;;43.28;14.15;;;;;;;;;;5046077;28;20391;-66
2023/05/14 00:51:45;;;;;;;388.23;351.45;;;;;;;;;;5056005;28;20367;-66
2023/05/14 00:54:14;;;;;;;24.45;13.15;;;;;;;;;;5046343;28;20095;-66
2023/05/14 00:56:40;;;;;;;25.23;15.02;;;;;;;;;;5046372;28;20036;-67
2023/05/14 00:59:07;;;;;;;120.65;70.43;;;;;;;;;;5044583;28;20017;-66
2023/05/14 01:01:34;;;;;;;74.53;44.80;;;;;;;;;;5055765;28;20429;-66
2023/05/14 01:04:00;;;;;;;52.22;29.38;;;;;;;;;;5055700;28;20017;-66
2023/05/14 01:06:30;;;;;;;39.60;19.98;;;;;;;;;;5055455;28;20028;-66
2023/05/14 01:09:03;;;;;;;42.25;23.83;;;;;;;;;;5045638;28;20021;-66
2023/05/14 01:11:32;;;;;;;95.18;44.65;;;;;;;;;;5046321;28;20079;-66
2023/05/14 01:14:14;;;;;;;87.53;38.92;;;;;;;;;;5044820;28;20030;-66
2023/05/14 01:16:42;;;;;;;160.55;72.88;;;;;;;;;;5054072;28;20025;-66
2023/05/14 01:19:10;;;;;;;184.07;82.10;;;;;;;;;;5055198;28;20021;-64
2023/05/14 01:21:39;;;;;;;131.40;62.25;;;;;;;;;;5055484;28;20049;-64
2023/05/14 01:24:07;;;;;;;163.93;69.47;;;;;;;;;;5055535;28;20033;-64
2023/05/14 01:26:33;;;;;;;;;;;;;;;;;;5055426;28;20029;-66
2023/05/14 01:28:59;;;;;;;;;;;;;;;;;;5055941;28;20424;-65
2023/05/14 01:31:27;;;;;;;;;;;;;;;;;;5056137;28;19950;-65
2023/05/14 01:33:53;;;;;;;;;;;;;;;;;;5055823;28;19905;-65
2023/05/14 01:36:19;;;;;;;;;;;;;;;;;;5055931;28;19908;-67
2023/05/14 01:38:46;;;;;;;;;;;;;;;;;;5055657;28;19905;-67
2023/05/14 01:41:13;;;;;;;;;;;;;;;;;;5049033;28;19966;-66
2023/05/14 01:43:39;;;;;;;;;;;;;;;;;;5044238;28;20084;-68
2023/05/14 01:46:05;;;;;;;;;;;;;;;;;;5054738;28;20340;-68
2023/05/14 01:48:31;;;;;;;;;;;;;;;;;;5054796;28;19911;-69
2023/05/14 01:50:57;;;;;;;;;;;;;;;;;;5054258;28;20008;-69
2023/05/14 01:53:24;;;;;;;;;;;;;;;;;;5045051;28;19913;-67
2023/05/14 01:55:50;;;;;;;;;;;;;;;;;;5054430;28;20007;-67
2023/05/14 01:58:16;;;;;;;;;;;;;;;;;;5042700;28;19905;-69
2023/05/14 02:00:42;;;;;;;;;;;;;;;;;;5053770;28;19928;-67
2023/05/14 02:03:09;;;;;;;;;;;;;;;;;;5050700;28;20479;-67
2023/05/14 02:05:35;;;;;;;;;;;;;;;;;;5053421;28;19912;-66
2023/05/14 02:08:01;;;;;;;;;;;;;;;;;;5053845;28;19908;-66
2023/05/14 02:10:27;;;;;;;;;;;;;;;;;;5042564;28;20358;-68
2023/05/14 02:12:53;;;;;;;;;;;;;;;;;;5044894;28;19912;-66
2023/05/14 02:15:20;;;;;;;;;;;;;;;;;;5044429;28;19909;-65
2023/05/14 02:17:46;;;;;;;;;;;;;;;;;;5042966;28;19905;-67
2023/05/14 02:20:12;;;;;;;;;;;;;;;;;;5052731;28;19912;-70
2023/05/14 02:22:41;;;;;;;;;;;;;;;;;;5052378;28;19905;-70
2023/05/14 02:25:07;;;;;;;;;;;;;;;;;;5050978;28;19909;-68
2023/05/14 02:27:33;;;;;;;;;;;;;;;;;;5051627;28;19905;-68
2023/05/14 02:29:59;;;;;;;;;;;;;;;;;;5042179;28;19923;-68
2023/05/14 02:32:25;;;;;;;;;;;;;;;;;;5051807;28;20258;-68
2023/05/14 02:34:52;;;;;;;;;;;;;;;;;;5051893;28;19948;-69
2023/05/14 02:37:18;;;;;;;;;;;;;;;;;;5040605;28;20396;-70
2023/05/14 02:39:44;;;;;;;;;;;;;;;;;;5052273;28;19966;-68
2023/05/14 02:42:10;;;;;;;;;;;;;;;;;;5053008;28;20338;-69
2023/05/14 02:44:37;;;;;;;;;;;;;;;;;;5053765;28;19908;-67
2023/05/14 02:47:03;;;;;;;;;;;;;;;;;;5043717;28;19905;-66
2023/05/14 02:49:29;;;;;;;;;;;;;;;;;;5044203;28;19908;-67
2023/05/14 02:51:55;;;;;;;;;;;;;;;;;;5049577;28;19908;-67
2023/05/14 02:54:22;;;;;;;;;;;;;;;;;;5050973;28;19954;-67
2023/05/14 02:56:48;;;;;;;;;;;;;;;;;;5052949;28;20351;-66
2023/05/14 02:59:14;;;;;;;;;;;;;;;;;;5053064;28;19991;-66
2023/05/14 03:01:41;;;;;;;;;;;;;;;;;;5053815;28;19995;-66
2023/05/14 03:04:07;;;;;;;;;;;;;;;;;;5046977;28;20345;-67
2023/05/14 03:06:33;;;;;;;;;;;;;;;;;;5034074;28;20324;-66
2023/05/14 03:08:59;;;;;;;;;;;;;;;;;;5043623;28;19959;-66
2023/05/14 03:11:26;;;;;;;;;;;;;;;;;;5052576;28;19916;-66
2023/05/14 03:13:52;;;;;;;;;;;;;;;;;;5041700;28;20377;-67
2023/05/14 03:16:18;;;;;;;;;;;;;;;;;;5053735;28;19951;-66
2023/05/14 03:18:44;;;;;;;;;;;;;;;;;;5053753;28;20417;-66
2023/05/14 03:21:11;;;;;;;;;;;;;;;;;;5053585;28;20281;-67
2023/05/14 03:23:37;;;;;;;;;;;;;;;;;;5050878;28;19913;-67
2023/05/14 03:26:03;;;;;;;;;;;;;;;;;;5052781;28;20284;-68
2023/05/14 03:28:30;;;;;;;;;;;;;;;;;;5052628;28;19909;-67
2023/05/14 03:30:56;;;;;;;;;;;;;;;;;;5041530;28;19953;-67
2023/05/14 03:33:22;;;;;;;;;;;;;;;;;;5052695;28;19904;-68
2023/05/14 03:35:48;;;;;;;;;;;;;;;;;;5052669;28;19927;-67
2023/05/14 03:38:15;;;;;;;;;;;;;;;;;;5039406;28;19909;-65
2023/05/14 03:40:41;;;;;;;;;;;;;;;;;;5033189;28;20041;-67
2023/05/14 03:43:07;;;;;;;;;;;;;;;;;;5032470;28;19912;-68
2023/05/14 03:45:33;;;;;;;;;;;;;;;;;;5033162;28;19991;-68
2023/05/14 03:48:00;;;;;;;;;;;;;;;;;;5033300;28;19916;-68
2023/05/14 03:50:26;;;;;;;;;;;;;;;;;;5032450;28;19909;-67
2023/05/14 03:52:52;;;;;;;;;;;;;;;;;;5032701;28;19948;-68
2023/05/14 03:55:18;;;;;;;;;;;;;;;;;;5035332;28;19905;-67
2023/05/14 03:57:44;;;;;;;;;;;;;;;;;;5035267;28;19905;-67
2023/05/14 04:00:11;;;;;;;;;;;;;;;;;;5035271;28;20325;-67
2023/05/14 04:02:37;;;;;;;;;;;;;;;;;;5035756;28;19912;-67
2023/05/14 04:05:03;;;;;;;;;;;;;;;;;;5035773;28;19905;-68
2023/05/14 04:07:29;;;;;;;;;;;;;;;;;;5036780;28;20392;-68
2023/05/14 04:09:55;;;;;;;;;;;;;;;;;;5036671;28;19916;-68
2023/05/14 04:12:22;;;;;;;;;;;;;;;;;;5036813;28;19905;-68
2023/05/14 04:14:48;;;;;;;;;;;;;;;;;;5036837;28;20313;-67
2023/05/14 04:17:14;;;;;;;;;;;;;;;;;;5036671;28;19909;-67
2023/05/14 04:19:40;;;;;;;;;;;;;;;;;;5036663;28;19996;-68
2023/05/14 04:22:06;;;;;;;;;;;;;;;;;;5036599;28;19959;-68
2023/05/14 04:24:33;;;;;;;;;;;;;;;;;;5036455;28;19905;-68
2023/05/14 04:26:59;;;;;;;;;;;;;;;;;;5038615;28;19913;-66
2023/05/14 04:29:25;;;;;;;;;;;;;;;;;;5045747;28;19905;-65
2023/05/14 04:31:51;;;;;;;;;;;;;;;;;;5036619;28;19913;-65
2023/05/14 04:34:18;;;;;;;;;;;;;;;;;;5041667;28;19909;-65
2023/05/14 04:36:44;;;;;;;;;;;;;;;;;;5055485;28;19916;-66
2023/05/14 04:39:11;;;;;;;;;;;;;;;;;;5053924;28;19916;-65
2023/05/14 04:41:37;;;;;;;;;;;;;;;;;;5057853;28;20138;-64
2023/05/14 04:44:03;;;;;;;;;;;;;;;;;;5051870;28;19909;-65
2023/05/14 04:46:29;;;;;;;;;;;;;;;;;;5057568;28;19916;-66
2023/05/14 04:48:56;;;;;;;;;;;;;;;;;;5053479;28;20274;-64
2023/05/14 04:51:22;;;;;;;;;;;;;;;;;;5057109;28;19920;-63
2023/05/14 04:53:48;;;;;;;;;;;;;;;;;;5056218;28;19991;-64
2023/05/14 04:56:15;;;;;;;;;;;;;;;;;;5050927;28;20357;-65
2023/05/14 04:58:41;;;;;;;;;;;;;;;;;;5053653;28;19905;-64
2023/05/14 05:01:08;;;;;;;;;;;;;;;;;;5057156;28;19995;-65
2023/05/14 05:03:34;;;;;;;;;;;;;;;;;;5057516;28;20352;-64
2023/05/14 05:06:00;;;;;;;;;;;;;;;;;;5057446;28;20357;-65
2023/05/14 05:08:27;;;;;;;;;;;;;;;;;;5057124;28;19967;-66
2023/05/14 05:10:53;;;;;;;;;;;;;;;;;;5044292;28;20020;-66
2023/05/14 05:13:19;;;;;;;;;;;;;;;;;;5045805;28;19908;-65
2023/05/14 05:15:45;;;;;;;;;;;;;;;;;;5044699;28;19905;-66
2023/05/14 05:18:12;;;;;;;;;;;;;;;;;;5055082;28;19958;-66
2023/05/14 05:20:38;;;;;;;;;;;;;;;;;;5054800;28;19991;-65
2023/05/14 05:23:04;;;;;;;;;;;;;;;;;;5054914;28;19909;-64
2023/05/14 05:25:30;;;;;;;;;;;;;;;;;;5044642;28;19905;-65
2023/05/14 05:27:57;;;;;;;;;;;;;;;;;;5046037;28;19992;-65
2023/05/14 05:30:23;;;;;;;;;;;;;;;;;;5044150;28;20058;-65
2023/05/14 05:32:49;;;;;;;;;;;;;;;;;;5054638;28;19905;-65
2023/05/14 05:35:15;;;;;;;;;;;;;;;;;;5054823;28;19927;-65
2023/05/14 05:37:41;;;;;;;;;;;;;;;;;;5052343;28;19905;-63
2023/05/14 05:40:09;;;;;;;;;;;;;;;;;;5054427;28;20353;-64
2023/05/14 05:42:35;;;;;;;;;;;;;;;;;;5043779;28;19991;-64
2023/05/14 05:45:01;;;;;;;;;;;;;;;;;;5044561;28;19909;-64
2023/05/14 05:47:27;;;;;;;;;;;;;;;;;;5043131;28;20312;-64
2023/05/14 05:49:53;;;;;;;;;;;;;;;;;;5053438;28;19909;-64
2023/05/14 05:52:20;;;;;;;;;;;;;;;;;;5053387;28;20380;-64
2023/05/14 05:54:46;;;;;;;;;;;;;;;;;;5053455;28;19905;-64
2023/05/14 05:57:12;;;;;;;;;;;;;;;;;;5042782;28;19928;-64
2023/05/14 05:59:38;;;;;;;;;;;;;;;;;;5044196;28;19905;-65
2023/05/14 06:02:05;;;;;;;;;;;;;;;;;;5050611;28;19977;-65
2023/05/14 06:04:31;;;;;;;;;;;;;;;;;;5052685;28;19943;-65
2023/05/14 06:06:57;;;;;;;;;;;;;;;;;;5052504;28;19950;-65
2023/05/14 06:09:23;;;;;;;;;;;;;;;;;;5050885;28;20013;-63
2023/05/14 06:11:49;;;;;;;;;;;;;;;;;;5052088;28;20069;-65
2023/05/14 06:14:16;;;;;;;;;;;;;;;;;;5052551;28;19916;-67
2023/05/14 06:16:42;;;;;;;;;;;;;;;;;;5051835;28;19905;-65
2023/05/14 06:19:08;;;;;;;;;;;;;;;;;;5051758;28;20381;-65
2023/05/14 06:21:35;;;;;;;;;;;;;;;;;;5051343;28;20000;-66
2023/05/14 06:24:01;;;;;;;;;;;;;;;;;;5051314;28;19927;-66
2023/05/14 06:26:27;;;;;;;;;;;;;;;;;;5051140;28;20289;-67
2023/05/14 06:28:54;;;;;;;;;;;;;;;;;;5052036;28;19911;-64
2023/05/14 06:31:20;;;;;;;;;;;;;;;;;;5052004;28;20384;-65
2023/05/14 06:33:46;;;;;;;;;;;;;;;;;;5052285;28;19905;-66
2023/05/14 06:36:12;;;;;;;;;;;;;;;;;;5052989;28;20365;-65
2023/05/14 06:38:38;;;;;;;;;;;;;;;;;;5052883;28;19905;-65
2023/05/14 06:41:05;;;;;;;;;;;;;;;;;;5046750;28;20332;-65
2023/05/14 06:43:31;;;;;;;;;;;;;;;;;;5051182;28;19908;-66
2023/05/14 06:45:57;;;;;;;;;;;;;;;;;;5052281;28;19952;-66
2023/05/14 06:48:26;;;;;;;;;;;;;;;;;;5032890;28;19912;-66
2023/05/14 06:50:52;;;;;;;;;;;;;;;;;;5032878;28;20403;-67
2023/05/14 06:53:19;;;;;;;;;;;;;;;;;;5032655;28;19909;-67
2023/05/14 06:55:45;;;;;;;;;;;;;;;;;;5032692;28;19909;-69
2023/05/14 06:58:11;;;;;;;;;;;;;;;;;;5041297;28;19962;-65
2023/05/14 07:00:37;;;;;;;;;;;;;;;;;;5049034;28;19909;-67
2023/05/14 07:03:03;;;;;;;;;;;;;;;;;;5052507;28;19905;-66
2023/05/14 07:05:30;;;;;;;;;;;;;;;;;;5052345;28;19909;-66
2023/05/14 07:07:56;;;;;;;;;;;;;;;;;;5052442;28;19912;-67
2023/05/14 07:10:22;;;;;;;;;;;;;;;;;;5035842;28;19917;-66
2023/05/14 07:12:48;;;;;;;;;;;;;;;;;;5034649;28;19966;-68
2023/05/14 07:15:15;;;;;;;;;;;;;;;;;;5052606;28;19904;-67
2023/05/14 07:17:41;;;;;;;;;;;;;;;;;;5052443;28;19971;-67
2023/05/14 07:20:07;;;;;;;;;;;;;;;;;;5052106;28;19904;-67
2023/05/14 07:22:33;;;;;;;;;;;;;;;;;;5052282;28;19912;-68
2023/05/14 07:24:59;;;;;;;;;;;;;;;;;;5042287;28;19920;-66
2023/05/14 07:27:25;;;;;;;;;;;;;;;;;;5034634;28;20277;-67
2023/05/14 07:29:52;;;;;;;;;;;;;;;;;;5042023;28;19920;-67
2023/05/14 07:32:18;;;;;;;;;;;;;;;;;;5045673;28;19960;-69
2023/05/14 07:34:45;;;;;;;;;;;;;;;;;;5072615;28;19951;-68
2023/05/14 07:37:11;;;;;;;;;;;;;;;;;;5077016;28;19999;-68
2023/05/14 07:39:37;;;;;;;;;;;;;;;;;;5063802;28;19923;-68
2023/05/14 07:42:03;;;;;;;;;;;;;;;;;;5055615;28;20297;-67
2023/05/14 07:44:29;;;;;;;;;;;;;;;;;;5055054;28;19919;-68
2023/05/14 07:46:56;;;;;;;;;;;;;;;;;;5062082;28;20025;-69
2023/05/14 07:49:22;;;;;;;;;;;;;;;;;;5068159;28;19990;-68
2023/05/14 07:51:48;;;;;;;;;;;;;;;;;;5061078;28;20287;-68
2023/05/14 07:54:14;;;;;;;;;;;;;;;;;;5052502;28;19908;-68
2023/05/14 07:56:41;;;;;;;;;;;;;;;;;;5053363;28;20308;-67
2023/05/14 07:59:07;;;;;;;;;;;;;;;;;;5051047;28;19908;-67
2023/05/14 08:01:33;;;;;;;;;;;;;;;;;;5068221;28;20416;-69
2023/05/14 08:03:59;;;;;;;;;;;;;;;;;;5062451;28;19963;-68
2023/05/14 08:06:27;;;;;;;;;;;;;;;;;;5052925;28;19913;-69
2023/05/14 08:08:53;;;;;;;;;;;;;;;;;;5054471;28;20480;-70
2023/05/14 08:11:21;;;;;;;;;;;;;;;;;;5047326;28;19921;-71
2023/05/14 08:13:47;;;;;;;;;;;;;;;;;;5049828;28;19908;-67
2023/05/14 08:16:13;;;;;;;;;;;;;;;;;;5048511;28;19912;-70
2023/05/14 08:18:39;;;;;;;;;;;;;;;;;;5054601;28;19920;-66
2023/05/14 08:21:06;;;;;;;;;;;;;;;;;;5052155;28;19919;-66
2023/05/14 08:23:32;;;;;;;;;;;;;;;;;;5053418;28;19943;-67
2023/05/14 08:25:58;;;;;;;;;;;;;;;;;;5053328;28;19963;-66
2023/05/14 08:28:24;;;;;;;;;;;;;;;;;;5052288;28;19939;-66
2023/05/14 08:30:51;;;;;;;;;;;;;;;;;;5054883;28;19909;-68
2023/05/14 08:33:17;;;;;;;;;;;;;;;;;;5054235;28;19913;-68
2023/05/14 08:35:43;;;;;;;;;;;;;;;;;;5052199;28;19931;-67
2023/05/14 08:38:10;;;;;;;;;;;;;;;;;;5054025;28;19909;-66
2023/05/14 08:40:36;;;;;;;;;;;;;;;;;;5044084;28;19909;-67
2023/05/14 08:43:02;;;;;;;;;;;;;;;;;;5045707;28;19908;-68
2023/05/14 08:45:28;;;;;;;;;;;;;;;;;;5044176;28;19955;-68
2023/05/14 08:47:55;;;;;;;;;;;;;;;;;;5054784;28;20211;-69
2023/05/14 08:50:21;;;;;;;;;;;;;;;;;;5051254;28;19913;-67
2023/05/14 08:52:47;;;;;;;;;;;;;;;;;;5054184;28;19905;-68
2023/05/14 08:55:14;;;;;;;;;;;;;;;;;;5054428;28;20427;-67
2023/05/14 08:57:40;;;;;;;;;;;;;;;;;;5048647;28;19944;-67
2023/05/14 09:00:14;;;;;;;;;;;;;;;;;;5051747;28;19909;-67
2023/05/14 09:02:40;;;;;;;;;;;;;;;;;;5044094;28;19916;-68
2023/05/14 09:05:08;;;;;;;;;;;;;;;;;;5053541;28;19963;-67
2023/05/14 09:07:34;;;;;;;;;;;;;;;;;;5054322;28;20013;-67
2023/05/14 09:10:00;;;;;;;;;;;;;;;;;;5054579;28;19970;-68
2023/05/14 09:12:27;;;;;;;;;;;;;;;;;;5054771;28;19909;-68
2023/05/14 09:14:53;;;;;;;;;;;;;;;;;;5044341;28;19915;-67
2023/05/14 09:17:19;;;;;;;;;;;;;;;;;;5045984;28;19908;-68
2023/05/14 09:19:51;;;;;;;;;;;;;;;;;;5043995;28;20417;-68
2023/05/14 09:22:17;;;;;;;;;;;;;;;;;;5052393;28;19908;-69
2023/05/14 09:24:44;;;;;;;;;;;;;;;;;;5049497;28;20379;-67
2023/05/14 09:27:10;;;;;;;;;;;;;;;;;;5047933;28;19911;-67
2023/05/14 09:29:36;;;;;;;;;;;;;;;;;;5054218;28;19954;-68
2023/05/14 09:32:04;;;;;;;;;;;;;;;;;;5043155;28;19916;-69
2023/05/14 09:34:30;;;;;;;;;;;;;;;;;;5050585;28;20358;-69
2023/05/14 09:36:57;;;;;;;;;;;;;;;;;;5054040;28;19908;-68
2023/05/14 09:39:23;;;;;;;;;;;;;;;;;;5048562;28;19963;-69
2023/05/14 09:41:50;;;;;;;;;;;;;;;;;;5054025;28;19940;-69
2023/05/14 09:44:16;;;;;;;;;;;;;;;;;;5051579;28;19908;-68
2023/05/14 09:46:43;;;;;;;;;;;;;;;;;;5052136;28;19922;-68
2023/05/14 09:49:09;;;;;;;;;;;;;;;;;;5053935;28;19912;-69
2023/05/14 09:51:35;;;;;;;;;;;;;;;;;;5053052;28;19908;-68
2023/05/14 09:54:01;;;;;;;;;;;;;;;;;;5042784;28;20363;-69
2023/05/14 09:56:27;;;;;;;;;;;;;;;;;;5048210;28;19966;-70
2023/05/14 09:58:54;;;;;;;;;;;;;;;;;;5051148;28;19912;-71
2023/05/14 10:01:20;;;;;;;;;;;;;;;;;;5053520;28;19915;-69
2023/05/14 10:03:46;;;;;;;;;;;;;;;;;;5045404;28;20293;-69
2023/05/14 10:06:12;;;;;;;;;;;;;;;;;;5051522;28;19904;-69
2023/05/14 10:08:39;;;;;;;;;;;;;;;;;;5050457;28;19908;-69
2023/05/14 10:11:06;;;;;;;;;;;;;;;;;;5047900;28;19917;-68
2023/05/14 10:13:32;;;;;;;;;;;;;;;;;;5053408;28;19905;-69
2023/05/14 10:15:58;;;;;;;;;;;;;;;;;;5042713;28;19928;-69
2023/05/14 10:18:24;;;;;;;;;;;;;;;;;;5048277;28;20306;-68
2023/05/14 10:20:50;;;;;;;;;;;;;;;;;;5051167;28;19959;-67
2023/05/14 10:23:17;;;;;;;;;;;;;;;;;;5051575;28;20277;-67
2023/05/14 10:25:43;;;;;;;;;;;;;;;;;;5053339;28;19911;-66
2023/05/14 10:28:09;;;;;;;;;;;;;;;;;;5042543;28;19928;-65
2023/05/14 10:30:35;;;;;;;;;;;;;;;;;;5053072;28;19912;-66
2023/05/14 10:33:01;;;;;;;;;;;;;;;;;;5053520;28;20387;-67
2023/05/14 10:35:28;;;;;;;;;;;;;;;;;;5042432;28;19909;-66
2023/05/14 10:37:55;;;;;;;;;;;;;;;;;;5047570;28;19905;-67
2023/05/14 10:40:21;;;;;;;;;;;;;;;;;;5049581;28;19911;-66
2023/05/14 10:42:47;;;;;;;;;;;;;;;;;;5046740;28;19911;-65
2023/05/14 10:45:13;;;;;;;;;;;;;;;;;;5050852;28;20368;-66
2023/05/14 10:47:40;;;;;;;;;;;;;;;;;;5043333;28;20928;-66
2023/05/14 10:50:08;;;;;;;33.25;18.65;;;;;;;;;;5043743;28;20394;-68
2023/05/14 10:52:35;;;;;;;41.20;23.23;;;;;;;;;;5052258;28;20021;-67
2023/05/14 10:55:03;;;;;;;246.98;196.75;;;;;;;;;;5051996;28;20027;-66
2023/05/14 10:57:30;;;;;;;679.20;607.45;;;;;;;;;;5052163;28;20021;-66
2023/05/14 10:59:58;;;;;;;177.82;150.63;;;;;;;;;;5049720;28;20049;-66
2023/05/14 11:02:26;;;;;;;836.10;748.77;;;;;;;;;;5050539;28;20385;-68
2023/05/14 11:04:55;;;;;;;39.28;23.50;;;;;;;;;;5040065;28;20419;-70
2023/05/14 11:07:25;;;;;;;41.33;25.20;;;;;;;;;;5043550;28;20021;-68
2023/05/14 11:09:51;;;;;;;74.10;45.35;;;;;;;;;;5052332;28;20501;-68
2023/05/14 11:12:21;;;;;;;63.00;39.63;;;;;;;;;;5047643;28;20056;-70
2023/05/14 11:14:48;;;;;;;43.58;23.83;;;;;;;;;;5052187;28;20021;-69
2023/05/14 11:17:15;;;;;;;42.22;24.58;;;;;;;;;;5049941;28;20025;-71
2023/05/14 11:19:43;;;;;;;38.85;20.88;;;;;;;;;;5052237;28;20051;-71
2023/05/14 11:22:12;;;;;;;37.22;21.70;;;;;;;;;;5050243;28;20535;-71
2023/05/14 11:24:40;;;;;;;36.88;20.15;;;;;;;;;;5052370;28;20021;-72
2023/05/14 11:27:08;;;;;;;35.25;21.40;;;;;;;;;;5050525;28;20458;-72
2023/05/14 11:29:35;;;;;;;32.85;19.33;;;;;;;;;;5052141;28;20523;-73
2023/05/14 11:32:04;;;;;;;35.00;20.70;;;;;;;;;;5052419;28;20024;-72
2023/05/14 11:34:32;;;;;;;62.35;39.30;;;;;;;;;;5052605;28;20021;-71
2023/05/14 11:36:59;;;;;;;48.90;24.75;;;;;;;;;;5052219;28;20066;-72
2023/05/14 11:39:25;;;;;;;49.92;27.95;;;;;;;;;;5052413;28;20025;-69
2023/05/14 11:41:52;;;;;;;43.38;23.73;;;;;;;;;;5053105;28;20036;-72
2023/05/14 11:44:19;;;;;;;32.78;19.13;;;;;;;;;;5052935;28;20056;-70
2023/05/14 11:46:55;;;;;;;30.17;19.48;;;;;;;;;;5049156;28;20025;-71
2023/05/14 11:49:22;;;;;;;30.35;18.90;;;;;;;;;;5042566;28;20029;-69
2023/05/14 11:51:49;;;;;;;28.83;17.27;;;;;;;;;;5032908;28;20087;-74
2023/05/14 11:54:16;;;;;;;26.90;16.13;;;;;;;;;;5033067;28;20029;-72
2023/05/14 11:56:43;;;;;;;34.08;16.63;;;;;;;;;;5033095;28;20013;-73
2023/05/14 11:59:11;;;;;;;31.75;18.83;;;;;;;;;;5033068;28;20475;-71
2023/05/14 12:01:37;;;;;;;28.92;14.38;;;;;;;;;;5038612;28;20109;-72
2023/05/14 12:04:04;;;;;;;32.63;15.55;;;;;;;;;;5048770;28;20478;-72
2023/05/14 12:06:32;;;;;;;24.27;14.50;;;;;;;;;;5046256;28;20025;-72
2023/05/14 12:09:00;;;;;;;33.55;19.40;;;;;;;;;;5052759;28;20025;-75
2023/05/14 12:11:30;;;;;;;40.25;20.85;;;;;;;;;;5052597;28;20041;-71
2023/05/14 12:13:58;;;;;;;26.13;17.70;;;;;;;;;;5053879;28;20021;-73
2023/05/14 12:16:30;;;;;;;43.35;29.90;;;;;;;;;;5054076;28;20032;-74
2023/05/14 12:18:56;;;;;;;;;;;;;;;;;;5056709;28;20021;-75
2023/05/14 12:21:23;;;;;;;32.38;21.45;;;;;;;;;;5049739;28;20660;-72
2023/05/14 12:23:56;;;;;;;32.65;20.05;;;;;;;;;;5051185;28;20466;-72
2023/05/14 12:26:23;;;;;;;34.83;23.45;;;;;;;;;;5056192;28;20017;-74
2023/05/14 12:28:49;;;;;;;24.30;17.13;;;;;;;;;;5056218;28;20029;-72
2023/05/14 12:31:16;;;;;;;39.55;28.60;;;;;;;;;;5047716;28;20025;-71
2023/05/14 12:33:42;;;;;;;68.70;47.05;;;;;;;;;;5046344;28;20106;-71
2023/05/14 12:36:09;;;;;;;44.83;29.45;;;;;;;;;;5055155;28;20067;-71
2023/05/14 12:38:36;;;;;;;24.85;14.52;;;;;;;;;;5055228;28;20390;-70
2023/05/14 12:41:03;;;;;;;20.75;12.40;;;;;;;;;;5055098;28;20025;-71
2023/05/14 12:43:31;;;;;;;;;;;;;;;;;;5053758;28;20035;-71
2023/05/14 12:45:57;;;;;;;20.77;12.35;;;;;;;;;;5042807;28;19912;-72
2023/05/14 12:48:24;;;;;;;19.95;13.40;;;;;;;;;;5054765;28;20024;-70
2023/05/14 12:50:50;;;;;;;;;;;;;;;;;;5039568;28;20037;-71
2023/05/14 12:53:16;;;;;;;;;;;;;;;;;;5035403;28;19959;-72
2023/05/14 12:55:43;;;;;;;;;;;;;;;;;;5035432;28;19905;-71
2023/05/14 12:58:09;;;;;;;;;;;;;;;;;;5055110;28;19971;-72
2023/05/14 13:00:35;;;;;;;;;;;;;;;;;;5055795;28;19908;-73
2023/05/14 13:03:01;;;;;;;;;;;;;;;;;;5055873;28;19931;-71
2023/05/14 13:05:27;;;;;;;;;;;;;;;;;;5055454;28;19940;-71
2023/05/14 13:07:54;;;;;;;;;;;;;;;;;;5054310;28;19908;-74
2023/05/14 13:10:20;;;;;;;;;;;;;;;;;;5055332;28;19917;-72
2023/05/14 13:12:46;;;;;;;;;;;;;;;;;;5055266;28;19928;-71
2023/05/14 13:15:12;;;;;;;;;;;;;;;;;;5055346;28;19916;-72
2023/05/14 13:17:40;;;;;;;;;;;;;;;;;;5055357;28;19904;-71
2023/05/14 13:20:06;;;;;;;;;;;;;;;;;;5055169;28;20367;-71
2023/05/14 13:22:32;;;;;;;;;;;;;;;;;;5055261;28;19915;-71
2023/05/14 13:24:58;;;;;;;;;;;;;;;;;;5054934;28;19919;-72
2023/05/14 13:27:24;;;;;;;;;;;;;;;;;;5055784;28;19916;-70
2023/05/14 13:29:51;;;;;;;;;;;;;;;;;;5055145;28;19915;-72
2023/05/14 13:32:17;;;;;;;;;;;;;;;;;;5055106;28;19909;-72
2023/05/14 13:34:44;;;;;;;;;;;;;;;;;;5057532;22;19921;-69
2023/05/14 13:37:10;;;;;;;;;;;;;;;;;;5035601;28;19909;-71
2023/05/14 13:39:36;;;;;;;;;;;;;;;;;;5035445;28;19909;-71
2023/05/14 13:42:02;;;;;;;;;;;;;;;;;;5034994;28;19912;-70
2023/05/14 13:44:29;;;;;;;;;;;;;;;;;;5035006;28;19905;-71
2023/05/14 13:46:55;;;;;;;;;;;;;;;;;;5035634;28;19905;-72
2023/05/14 13:49:21;;;;;;;;;;;;;;;;;;5023664;28;20393;-71
2023/05/14 13:51:47;;;;;;;;;;;;;;;;;;5034365;28;20011;-71
2023/05/14 13:54:14;;;;;;;;;;;;;;;;;;5016342;28;20326;-72
2023/05/14 13:56:40;;;;;;;;;;;;;;;;;;5031464;28;19917;-70
2023/05/14 13:59:06;;;;;;;;;;;;;;;;;;5024907;28;20384;-71
2023/05/14 14:01:32;;;;;;;;;;;;;;;;;;5022081;28;20382;-71
2023/05/14 14:03:59;;;;;;;;;;;;;;;;;;5015282;28;19909;-72
2023/05/14 14:06:26;;;;;;;;;;;;;;;;;;5028417;28;19913;-70
2023/05/14 14:08:52;;;;;;;;;;;;;;;;;;5034665;28;19905;-71
2023/05/14 14:11:18;;;;;;;;;;;;;;;;;;5034803;28;19913;-70
2023/05/14 14:13:44;;;;;;;;;;;;;;;;;;5033833;28;19916;-71
2023/05/14 14:16:10;;;;;;;;;;;;;;;;;;5015039;28;19931;-71
2023/05/14 14:18:37;;;;;;;;;;;;;;;;;;5014847;28;20343;-71
2023/05/14 14:21:03;;;;;;;;;;;;;;;;;;5014726;28;19914;-71
2023/05/14 14:23:29;;;;;;;;;;;;;;;;;;5014893;28;19959;-71
2023/05/14 14:25:55;;;;;;;;;;;;;;;;;;5014429;28;19909;-72
2023/05/14 14:28:21;;;;;;;;;;;;;;;;;;5014767;28;19949;-72
2023/05/14 14:30:48;;;;;;;;;;;;;;;;;;5015052;28;20162;-71
2023/05/14 14:33:14;;;;;;;;;;;;;;;;;;5014583;28;19918;-72
2023/05/14 14:35:40;;;;;;;;;;;;;;;;;;5020089;28;20358;-73
2023/05/14 14:38:07;;;;;;;;;;;;;;;;;;5033743;28;19905;-73
2023/05/14 14:40:33;;;;;;;;;;;;;;;;;;5034156;28;19913;-74
2023/05/14 14:42:59;;;;;;;;;;;;;;;;;;5034054;28;19912;-74
2023/05/14 14:45:25;;;;;;;;;;;;;;;;;;5033321;28;19909;-74
2023/05/14 14:47:52;;;;;;;;;;;;;;;;;;5028091;28;20322;-72
2023/05/14 14:50:18;;;;;;;;;;;;;;;;;;5031896;28;19913;-72
2023/05/14 14:52:46;;;;;;;;;;;;;;;;;;5032861;28;20320;-74
2023/05/14 14:55:12;;;;;;;;;;;;;;;;;;5028104;28;20422;-74
2023/05/14 14:57:39;;;;;;;;;;;;;;;;;;5016431;28;19913;-74
2023/05/14 15:00:05;;;;;;;;;;;;;;;;;;5031050;28;20262;-74
2023/05/14 15:02:31;;;;;;;;;;;;;;;;;;5034232;28;19945;-73
2023/05/14 15:04:58;;;;;;;;;;;;;;;;;;5024698;28;19914;-74
2023/05/14 15:07:24;;;;;;;;;;;;;;;;;;5017663;28;19922;-74
2023/05/14 15:09:51;;;;;;;;;;;;;;;;;;5015221;28;20286;-72
2023/05/14 15:12:18;;;;;;;;;;;;;;;;;;5014451;28;20226;-72
2023/05/14 15:14:44;;;;;;;;;;;;;;;;;;5032611;28;19940;-74
2023/05/14 15:17:10;;;;;;;;;;;;;;;;;;5033051;28;19913;-74
2023/05/14 15:19:36;;;;;;;;;;;;;;;;;;5032728;28;19913;-75
2023/05/14 15:22:02;;;;;;;;;;;;;;;;;;5053777;28;19994;-74
2023/05/14 15:24:29;;;;;;;;;;;;;;;;;;5045506;28;20388;-74
2023/05/14 15:26:55;;;;;;;;;;;;;;;;;;5048665;28;19915;-73
2023/05/14 15:29:21;;;;;;;;;;;;;;;;;;5053510;28;20139;-75
2023/05/14 15:31:47;;;;;;;;;;;;;;;;;;5047454;28;19917;-73
2023/05/14 15:34:13;;;;;;;;;;;;;;;;;;5032141;28;20352;-74
2023/05/14 15:36:40;;;;;;;;;;;;;;;;;;5033446;28;20428;-75
2023/05/14 15:39:09;;;;;;;;;;;;;;;;;;5033323;28;19939;-74
2023/05/14 15:41:35;;;;;;;;;;;;;;;;;;5019597;28;19948;-74
2023/05/14 15:44:01;;;;;;;;;;;;;;;;;;5027400;28;20357;-71
2023/05/14 15:46:27;;;;;;;;;;;;;;;;;;5017747;28;19915;-75
2023/05/14 15:48:53;;;;;;;;;;;;;;;;;;5019830;28;19914;-73
2023/05/14 15:51:20;;;;;;;;;;;;;;;;;;5031994;28;19913;-73
2023/05/14 15:53:46;;;;;;;;;;;;;;;;;;5037127;28;19956;-75
2023/05/14 15:56:12;;;;;;;;;;;;;;;;;;5037270;28;19912;-73
2023/05/14 15:58:38;;;;;;;;;;;;;;;;;;5035881;28;20136;-77
2023/05/14 16:01:04;;;;;;;;;;;;;;;;;;5032617;28;19910;-73
2023/05/14 16:03:31;;;;;;;;;;;;;;;;;;5038794;28;19913;-73